Qena, Egypt
Current Conditions -  °F | °C
As of 11:00 AM on Monday 20 Oct 2014 (Local Time) from HELX Reporting Station
Clear Clear  
Wind Chill: 82°   Ceiling: Unl
Heat Index: 82°   Visibility: 6mi
Dew Point: 59°   Wind: 7mph
Humidity: 45%   Direction: 340°NNW
Pressure: 29.88"   Gusts: NA
Location:  26.15°N, 32.72°E
Report Text: HELX 200900Z 34006KT CAVOK 28/15 Q1012 NOSIG
Loading
Personal Weather Stations






























Interactive Weather Map New forecast layout! Learn more

10-Day Weather Forecast

Advertisements
Track Severe Weather on mobile